sensor_id;sensor_type;location;lat;lon;timestamp;P1;durP1;ratioP1;P2;durP2;ratioP2
18084;SDS011;9169;44.492;11.372;2023-04-03T00:00:23;4.73;;;2.87;;
18084;SDS011;9169;44.492;11.372;2023-04-03T00:03:10;4.93;;;3.40;;
18084;SDS011;9169;44.492;11.372;2023-04-03T00:05:39;6.60;;;3.40;;
18084;SDS011;9169;44.492;11.372;2023-04-03T00:08:09;4.57;;;3.07;;
18084;SDS011;9169;44.492;11.372;2023-04-03T00:10:38;5.40;;;3.00;;
18084;SDS011;9169;44.492;11.372;2023-04-03T00:13:07;5.33;;;3.27;;
18084;SDS011;9169;44.492;11.372;2023-04-03T00:15:37;4.80;;;2.97;;
18084;SDS011;9169;44.492;11.372;2023-04-03T00:18:07;5.40;;;2.90;;
18084;SDS011;9169;44.492;11.372;2023-04-03T00:20:36;7.90;;;3.63;;
18084;SDS011;9169;44.492;11.372;2023-04-03T00:23:05;4.80;;;3.10;;
18084;SDS011;9169;44.492;11.372;2023-04-03T00:25:35;5.07;;;3.20;;
18084;SDS011;9169;44.492;11.372;2023-04-03T00:28:04;5.20;;;3.40;;
18084;SDS011;9169;44.492;11.372;2023-04-03T00:30:33;6.43;;;3.30;;
18084;SDS011;9169;44.492;11.372;2023-04-03T00:33:02;6.33;;;2.90;;
18084;SDS011;9169;44.492;11.372;2023-04-03T00:35:31;4.73;;;3.50;;
18084;SDS011;9169;44.492;11.372;2023-04-03T00:38:01;5.43;;;3.10;;
18084;SDS011;9169;44.492;11.372;2023-04-03T00:40:33;3.87;;;3.00;;
18084;SDS011;9169;44.492;11.372;2023-04-03T00:43:08;3.23;;;2.50;;
18084;SDS011;9169;44.492;11.372;2023-04-03T00:45:42;11.40;;;3.20;;
18084;SDS011;9169;44.492;11.372;2023-04-03T00:48:13;4.43;;;3.10;;
18084;SDS011;9169;44.492;11.372;2023-04-03T00:50:46;4.23;;;2.80;;
18084;SDS011;9169;44.492;11.372;2023-04-03T00:53:17;6.63;;;3.57;;
18084;SDS011;9169;44.492;11.372;2023-04-03T00:55:50;4.10;;;3.00;;
18084;SDS011;9169;44.492;11.372;2023-04-03T00:58:23;4.60;;;3.17;;
18084;SDS011;9169;44.492;11.372;2023-04-03T01:00:57;6.83;;;3.10;;
18084;SDS011;9169;44.492;11.372;2023-04-03T01:03:26;4.00;;;2.77;;
18084;SDS011;9169;44.492;11.372;2023-04-03T01:05:55;5.07;;;2.80;;
18084;SDS011;9169;44.492;11.372;2023-04-03T01:08:24;6.10;;;3.23;;
18084;SDS011;9169;44.492;11.372;2023-04-03T01:10:56;4.57;;;2.93;;
18084;SDS011;9169;44.492;11.372;2023-04-03T01:13:26;6.67;;;3.37;;
18084;SDS011;9169;44.492;11.372;2023-04-03T01:15:58;5.07;;;3.10;;
18084;SDS011;9169;44.492;11.372;2023-04-03T01:18:29;11.43;;;3.50;;
18084;SDS011;9169;44.492;11.372;2023-04-03T01:21:06;6.37;;;3.73;;
18084;SDS011;9169;44.492;11.372;2023-04-03T01:23:58;7.20;;;3.53;;
18084;SDS011;9169;44.492;11.372;2023-04-03T01:26:40;9.37;;;4.30;;
18084;SDS011;9169;44.492;11.372;2023-04-03T01:29:09;7.97;;;4.03;;
18084;SDS011;9169;44.492;11.372;2023-04-03T01:31:47;9.53;;;3.90;;
18084;SDS011;9169;44.492;11.372;2023-04-03T01:34:20;8.73;;;3.77;;
18084;SDS011;9169;44.492;11.372;2023-04-03T01:36:49;5.27;;;3.70;;
18084;SDS011;9169;44.492;11.372;2023-04-03T01:39:20;5.70;;;3.80;;
18084;SDS011;9169;44.492;11.372;2023-04-03T01:41:49;6.17;;;3.70;;
18084;SDS011;9169;44.492;11.372;2023-04-03T01:44:31;7.87;;;4.27;;
18084;SDS011;9169;44.492;11.372;2023-04-03T01:47:01;7.80;;;4.20;;
18084;SDS011;9169;44.492;11.372;2023-04-03T01:49:30;6.80;;;4.03;;
18084;SDS011;9169;44.492;11.372;2023-04-03T01:51:59;5.10;;;4.00;;
18084;SDS011;9169;44.492;11.372;2023-04-03T01:54:27;5.90;;;3.30;;
18084;SDS011;9169;44.492;11.372;2023-04-03T01:56:56;6.43;;;3.40;;
18084;SDS011;9169;44.492;11.372;2023-04-03T01:59:25;5.93;;;3.47;;
18084;SDS011;9169;44.492;11.372;2023-04-03T02:01:54;5.70;;;3.53;;
18084;SDS011;9169;44.492;11.372;2023-04-03T02:04:24;7.13;;;3.73;;
18084;SDS011;9169;44.492;11.372;2023-04-03T02:06:53;6.17;;;4.10;;
18084;SDS011;9169;44.492;11.372;2023-04-03T02:09:22;4.87;;;3.20;;
18084;SDS011;9169;44.492;11.372;2023-04-03T02:11:51;6.07;;;3.33;;
18084;SDS011;9169;44.492;11.372;2023-04-03T02:14:20;7.40;;;4.57;;
18084;SDS011;9169;44.492;11.372;2023-04-03T02:16:50;7.77;;;3.77;;
18084;SDS011;9169;44.492;11.372;2023-04-03T02:19:21;6.33;;;3.30;;
18084;SDS011;9169;44.492;11.372;2023-04-03T02:21:52;6.90;;;3.77;;
18084;SDS011;9169;44.492;11.372;2023-04-03T02:24:20;7.63;;;4.33;;
18084;SDS011;9169;44.492;11.372;2023-04-03T02:26:49;6.03;;;3.30;;
18084;SDS011;9169;44.492;11.372;2023-04-03T02:29:18;7.03;;;3.27;;
18084;SDS011;9169;44.492;11.372;2023-04-03T02:31:47;7.13;;;3.50;;
18084;SDS011;9169;44.492;11.372;2023-04-03T02:34:16;7.50;;;3.50;;
18084;SDS011;9169;44.492;11.372;2023-04-03T02:36:46;4.77;;;3.17;;
18084;SDS011;9169;44.492;11.372;2023-04-03T02:39:17;5.93;;;3.37;;
18084;SDS011;9169;44.492;11.372;2023-04-03T02:41:47;6.73;;;3.50;;
18084;SDS011;9169;44.492;11.372;2023-04-03T02:44:21;5.10;;;3.30;;
18084;SDS011;9169;44.492;11.372;2023-04-03T02:46:52;4.60;;;3.50;;
18084;SDS011;9169;44.492;11.372;2023-04-03T02:49:20;9.40;;;3.37;;
18084;SDS011;9169;44.492;11.372;2023-04-03T02:51:49;4.73;;;3.60;;
18084;SDS011;9169;44.492;11.372;2023-04-03T02:54:20;5.27;;;3.40;;
18084;SDS011;9169;44.492;11.372;2023-04-03T02:56:53;5.70;;;4.03;;
18084;SDS011;9169;44.492;11.372;2023-04-03T02:59:22;5.33;;;3.30;;
18084;SDS011;9169;44.492;11.372;2023-04-03T03:01:52;6.10;;;3.90;;
18084;SDS011;9169;44.492;11.372;2023-04-03T03:04:22;8.40;;;4.03;;
18084;SDS011;9169;44.492;11.372;2023-04-03T03:06:51;4.07;;;2.90;;
18084;SDS011;9169;44.492;11.372;2023-04-03T03:09:21;4.63;;;3.33;;
18084;SDS011;9169;44.492;11.372;2023-04-03T03:11:50;6.10;;;3.00;;
18084;SDS011;9169;44.492;11.372;2023-04-03T03:14:18;4.87;;;3.27;;
18084;SDS011;9169;44.492;11.372;2023-04-03T03:16:47;5.43;;;3.07;;
18084;SDS011;9169;44.492;11.372;2023-04-03T03:19:16;6.53;;;3.60;;
18084;SDS011;9169;44.492;11.372;2023-04-03T03:21:44;7.40;;;3.90;;
18084;SDS011;9169;44.492;11.372;2023-04-03T03:24:13;6.53;;;3.30;;
18084;SDS011;9169;44.492;11.372;2023-04-03T03:26:43;6.33;;;3.33;;
18084;SDS011;9169;44.492;11.372;2023-04-03T03:29:12;12.63;;;3.73;;
18084;SDS011;9169;44.492;11.372;2023-04-03T03:31:42;10.70;;;3.87;;
18084;SDS011;9169;44.492;11.372;2023-04-03T03:34:11;8.73;;;3.70;;
18084;SDS011;9169;44.492;11.372;2023-04-03T03:36:40;9.97;;;4.40;;
18084;SDS011;9169;44.492;11.372;2023-04-03T03:39:09;10.27;;;3.93;;
18084;SDS011;9169;44.492;11.372;2023-04-03T03:41:38;6.83;;;2.87;;
18084;SDS011;9169;44.492;11.372;2023-04-03T03:44:08;12.00;;;3.53;;
18084;SDS011;9169;44.492;11.372;2023-04-03T03:46:37;7.17;;;3.20;;
18084;SDS011;9169;44.492;11.372;2023-04-03T03:49:06;4.40;;;3.33;;
18084;SDS011;9169;44.492;11.372;2023-04-03T03:51:35;7.37;;;3.30;;
18084;SDS011;9169;44.492;11.372;2023-04-03T03:54:06;9.50;;;2.87;;
18084;SDS011;9169;44.492;11.372;2023-04-03T03:56:35;5.00;;;3.30;;
18084;SDS011;9169;44.492;11.372;2023-04-03T03:59:04;6.77;;;3.67;;
18084;SDS011;9169;44.492;11.372;2023-04-03T04:01:35;5.50;;;3.63;;
18084;SDS011;9169;44.492;11.372;2023-04-03T04:04:04;5.40;;;3.73;;
18084;SDS011;9169;44.492;11.372;2023-04-03T04:06:32;5.30;;;3.60;;
18084;SDS011;9169;44.492;11.372;2023-04-03T04:09:04;6.20;;;3.60;;
18084;SDS011;9169;44.492;11.372;2023-04-03T04:11:33;7.80;;;3.77;;
18084;SDS011;9169;44.492;11.372;2023-04-03T04:14:02;7.30;;;3.63;;
18084;SDS011;9169;44.492;11.372;2023-04-03T04:19:07;15.47;;;3.63;;
18084;SDS011;9169;44.492;11.372;2023-04-03T04:21:37;4.60;;;3.50;;
18084;SDS011;9169;44.492;11.372;2023-04-03T04:24:07;8.33;;;3.87;;
18084;SDS011;9169;44.492;11.372;2023-04-03T04:26:36;14.17;;;4.10;;
18084;SDS011;9169;44.492;11.372;2023-04-03T04:29:08;5.20;;;3.10;;
18084;SDS011;9169;44.492;11.372;2023-04-03T04:31:37;3.87;;;3.27;;
18084;SDS011;9169;44.492;11.372;2023-04-03T04:34:08;8.53;;;3.33;;
18084;SDS011;9169;44.492;11.372;2023-04-03T04:36:37;5.10;;;3.47;;
18084;SDS011;9169;44.492;11.372;2023-04-03T04:39:06;4.50;;;3.00;;
18084;SDS011;9169;44.492;11.372;2023-04-03T04:41:35;7.20;;;3.87;;
18084;SDS011;9169;44.492;11.372;2023-04-03T04:44:05;5.40;;;3.07;;
18084;SDS011;9169;44.492;11.372;2023-04-03T04:46:35;5.37;;;3.40;;
18084;SDS011;9169;44.492;11.372;2023-04-03T04:49:05;4.17;;;3.40;;
18084;SDS011;9169;44.492;11.372;2023-04-03T04:51:35;19.23;;;4.40;;
18084;SDS011;9169;44.492;11.372;2023-04-03T04:54:11;6.70;;;3.90;;
18084;SDS011;9169;44.492;11.372;2023-04-03T04:56:41;12.77;;;4.57;;
18084;SDS011;9169;44.492;11.372;2023-04-03T04:59:09;17.10;;;4.80;;
18084;SDS011;9169;44.492;11.372;2023-04-03T05:01:38;12.43;;;6.87;;
18084;SDS011;9169;44.492;11.372;2023-04-03T05:04:12;27.10;;;10.50;;
18084;SDS011;9169;44.492;11.372;2023-04-03T05:06:43;10.70;;;4.87;;
18084;SDS011;9169;44.492;11.372;2023-04-03T05:09:16;11.97;;;5.13;;
18084;SDS011;9169;44.492;11.372;2023-04-03T05:11:47;44.00;;;20.63;;
18084;SDS011;9169;44.492;11.372;2023-04-03T05:14:18;21.37;;;5.00;;
18084;SDS011;9169;44.492;11.372;2023-04-03T05:16:48;11.47;;;4.90;;
18084;SDS011;9169;44.492;11.372;2023-04-03T05:19:22;9.13;;;4.50;;
18084;SDS011;9169;44.492;11.372;2023-04-03T05:21:52;9.70;;;4.20;;
18084;SDS011;9169;44.492;11.372;2023-04-03T05:24:22;12.13;;;4.73;;
18084;SDS011;9169;44.492;11.372;2023-04-03T05:26:51;16.53;;;5.10;;
18084;SDS011;9169;44.492;11.372;2023-04-03T05:29:20;15.17;;;5.20;;
18084;SDS011;9169;44.492;11.372;2023-04-03T05:31:49;12.90;;;4.80;;
18084;SDS011;9169;44.492;11.372;2023-04-03T05:34:19;17.03;;;4.70;;
18084;SDS011;9169;44.492;11.372;2023-04-03T05:36:52;10.10;;;4.90;;
18084;SDS011;9169;44.492;11.372;2023-04-03T05:39:20;10.30;;;4.80;;
18084;SDS011;9169;44.492;11.372;2023-04-03T05:41:50;12.03;;;6.50;;
18084;SDS011;9169;44.492;11.372;2023-04-03T05:44:19;9.13;;;5.57;;
18084;SDS011;9169;44.492;11.372;2023-04-03T05:46:49;13.20;;;6.27;;
18084;SDS011;9169;44.492;11.372;2023-04-03T05:49:18;11.27;;;7.20;;
18084;SDS011;9169;44.492;11.372;2023-04-03T05:51:47;14.13;;;7.50;;
18084;SDS011;9169;44.492;11.372;2023-04-03T05:54:24;8.63;;;5.87;;
18084;SDS011;9169;44.492;11.372;2023-04-03T05:57:10;10.87;;;5.87;;
18084;SDS011;9169;44.492;11.372;2023-04-03T05:59:40;14.90;;;6.07;;
18084;SDS011;9169;44.492;11.372;2023-04-03T06:02:10;10.63;;;5.50;;
18084;SDS011;9169;44.492;11.372;2023-04-03T06:04:41;10.17;;;6.23;;
18084;SDS011;9169;44.492;11.372;2023-04-03T06:07:10;10.50;;;5.90;;
18084;SDS011;9169;44.492;11.372;2023-04-03T06:09:42;9.87;;;6.40;;
18084;SDS011;9169;44.492;11.372;2023-04-03T06:12:11;11.53;;;5.80;;
18084;SDS011;9169;44.492;11.372;2023-04-03T06:14:39;12.23;;;6.37;;
18084;SDS011;9169;44.492;11.372;2023-04-03T06:17:08;7.23;;;5.50;;
18084;SDS011;9169;44.492;11.372;2023-04-03T06:19:39;12.03;;;8.30;;
18084;SDS011;9169;44.492;11.372;2023-04-03T06:22:08;13.20;;;7.10;;
18084;SDS011;9169;44.492;11.372;2023-04-03T06:24:38;11.90;;;6.30;;
18084;SDS011;9169;44.492;11.372;2023-04-03T06:27:08;9.97;;;6.50;;
18084;SDS011;9169;44.492;11.372;2023-04-03T06:29:38;8.53;;;6.73;;
18084;SDS011;9169;44.492;11.372;2023-04-03T06:32:07;9.13;;;7.17;;
18084;SDS011;9169;44.492;11.372;2023-04-03T06:34:36;10.57;;;7.10;;
18084;SDS011;9169;44.492;11.372;2023-04-03T06:37:05;25.50;;;16.73;;
18084;SDS011;9169;44.492;11.372;2023-04-03T06:39:33;33.03;;;26.83;;
18084;SDS011;9169;44.492;11.372;2023-04-03T06:42:02;44.30;;;33.07;;
18084;SDS011;9169;44.492;11.372;2023-04-03T06:44:38;35.80;;;27.40;;
18084;SDS011;9169;44.492;11.372;2023-04-03T06:47:08;33.20;;;23.03;;
18084;SDS011;9169;44.492;11.372;2023-04-03T06:49:39;38.20;;;25.57;;
18084;SDS011;9169;44.492;11.372;2023-04-03T06:52:07;29.30;;;22.20;;
18084;SDS011;9169;44.492;11.372;2023-04-03T06:54:39;32.43;;;23.30;;
18084;SDS011;9169;44.492;11.372;2023-04-03T06:57:08;23.30;;;17.33;;
18084;SDS011;9169;44.492;11.372;2023-04-03T06:59:36;21.17;;;14.80;;
18084;SDS011;9169;44.492;11.372;2023-04-03T07:02:08;19.60;;;15.60;;
18084;SDS011;9169;44.492;11.372;2023-04-03T07:04:39;26.40;;;10.30;;
18084;SDS011;9169;44.492;11.372;2023-04-03T07:07:08;15.23;;;8.13;;
18084;SDS011;9169;44.492;11.372;2023-04-03T07:09:36;15.57;;;10.43;;
18084;SDS011;9169;44.492;11.372;2023-04-03T07:12:05;15.57;;;11.07;;
18084;SDS011;9169;44.492;11.372;2023-04-03T07:14:34;25.40;;;18.10;;
18084;SDS011;9169;44.492;11.372;2023-04-03T07:17:04;16.37;;;12.00;;
18084;SDS011;9169;44.492;11.372;2023-04-03T07:19:32;11.67;;;9.83;;
18084;SDS011;9169;44.492;11.372;2023-04-03T07:22:01;10.90;;;8.20;;
18084;SDS011;9169;44.492;11.372;2023-04-03T07:24:30;16.27;;;10.93;;
18084;SDS011;9169;44.492;11.372;2023-04-03T07:26:58;13.33;;;9.17;;
18084;SDS011;9169;44.492;11.372;2023-04-03T07:29:27;11.43;;;9.40;;
18084;SDS011;9169;44.492;11.372;2023-04-03T07:31:56;12.30;;;8.23;;
18084;SDS011;9169;44.492;11.372;2023-04-03T07:34:27;12.07;;;8.40;;
18084;SDS011;9169;44.492;11.372;2023-04-03T07:36:57;11.13;;;8.60;;
18084;SDS011;9169;44.492;11.372;2023-04-03T07:39:25;16.13;;;9.10;;
18084;SDS011;9169;44.492;11.372;2023-04-03T07:41:54;13.53;;;9.90;;
18084;SDS011;9169;44.492;11.372;2023-04-03T07:44:24;13.57;;;9.57;;
18084;SDS011;9169;44.492;11.372;2023-04-03T07:46:53;12.47;;;8.77;;
18084;SDS011;9169;44.492;11.372;2023-04-03T07:49:22;14.50;;;10.00;;
18084;SDS011;9169;44.492;11.372;2023-04-03T07:51:54;14.20;;;8.90;;
18084;SDS011;9169;44.492;11.372;2023-04-03T07:54:22;14.97;;;9.17;;
18084;SDS011;9169;44.492;11.372;2023-04-03T07:56:51;14.17;;;10.40;;
18084;SDS011;9169;44.492;11.372;2023-04-03T07:59:20;12.90;;;10.20;;
18084;SDS011;9169;44.492;11.372;2023-04-03T08:01:48;15.70;;;9.97;;
18084;SDS011;9169;44.492;11.372;2023-04-03T08:04:17;17.93;;;10.03;;
18084;SDS011;9169;44.492;11.372;2023-04-03T08:06:46;14.00;;;10.43;;
18084;SDS011;9169;44.492;11.372;2023-04-03T08:09:17;14.60;;;9.83;;
18084;SDS011;9169;44.492;11.372;2023-04-03T08:11:46;13.97;;;10.73;;
18084;SDS011;9169;44.492;11.372;2023-04-03T08:14:15;13.60;;;9.63;;
18084;SDS011;9169;44.492;11.372;2023-04-03T08:16:45;14.60;;;10.17;;
18084;SDS011;9169;44.492;11.372;2023-04-03T08:19:14;14.70;;;10.57;;
18084;SDS011;9169;44.492;11.372;2023-04-03T08:21:50;11.27;;;8.13;;
18084;SDS011;9169;44.492;11.372;2023-04-03T08:24:21;13.20;;;8.50;;
18084;SDS011;9169;44.492;11.372;2023-04-03T08:26:50;12.43;;;8.30;;
18084;SDS011;9169;44.492;11.372;2023-04-03T08:29:18;12.83;;;8.63;;
18084;SDS011;9169;44.492;11.372;2023-04-03T08:31:47;9.10;;;7.03;;
18084;SDS011;9169;44.492;11.372;2023-04-03T08:34:17;10.80;;;7.87;;
18084;SDS011;9169;44.492;11.372;2023-04-03T08:36:46;10.67;;;6.80;;
18084;SDS011;9169;44.492;11.372;2023-04-03T08:39:15;14.93;;;7.97;;
18084;SDS011;9169;44.492;11.372;2023-04-03T08:41:45;10.03;;;6.30;;
18084;SDS011;9169;44.492;11.372;2023-04-03T08:44:16;9.90;;;5.67;;
18084;SDS011;9169;44.492;11.372;2023-04-03T08:46:54;12.37;;;6.00;;
18084;SDS011;9169;44.492;11.372;2023-04-03T08:49:31;7.97;;;6.00;;
18084;SDS011;9169;44.492;11.372;2023-04-03T08:52:03;11.07;;;6.47;;
18084;SDS011;9169;44.492;11.372;2023-04-03T08:54:40;9.20;;;5.97;;
18084;SDS011;9169;44.492;11.372;2023-04-03T08:57:20;10.03;;;7.30;;
18084;SDS011;9169;44.492;11.372;2023-04-03T08:59:55;10.47;;;6.00;;
18084;SDS011;9169;44.492;11.372;2023-04-03T09:02:27;9.40;;;5.70;;
18084;SDS011;9169;44.492;11.372;2023-04-03T09:05:01;10.70;;;5.30;;
18084;SDS011;9169;44.492;11.372;2023-04-03T09:07:32;10.80;;;5.87;;
18084;SDS011;9169;44.492;11.372;2023-04-03T09:10:08;14.73;;;5.47;;
18084;SDS011;9169;44.492;11.372;2023-04-03T09:12:42;7.83;;;4.90;;
18084;SDS011;9169;44.492;11.372;2023-04-03T09:15:17;8.07;;;5.00;;
18084;SDS011;9169;44.492;11.372;2023-04-03T09:17:57;10.30;;;4.40;;
18084;SDS011;9169;44.492;11.372;2023-04-03T09:20:33;8.60;;;4.50;;
18084;SDS011;9169;44.492;11.372;2023-04-03T09:23:13;14.30;;;5.30;;
18084;SDS011;9169;44.492;11.372;2023-04-03T09:25:48;10.57;;;4.80;;
18084;SDS011;9169;44.492;11.372;2023-04-03T09:28:22;8.23;;;5.10;;
18084;SDS011;9169;44.492;11.372;2023-04-03T09:30:51;9.20;;;4.77;;
18084;SDS011;9169;44.492;11.372;2023-04-03T09:33:19;9.03;;;4.70;;
18084;SDS011;9169;44.492;11.372;2023-04-03T09:35:49;6.97;;;5.03;;
18084;SDS011;9169;44.492;11.372;2023-04-03T09:38:20;9.93;;;5.53;;
18084;SDS011;9169;44.492;11.372;2023-04-03T09:40:51;11.47;;;6.00;;
18084;SDS011;9169;44.492;11.372;2023-04-03T09:43:34;8.97;;;5.30;;
18084;SDS011;9169;44.492;11.372;2023-04-03T09:46:16;12.70;;;5.80;;
18084;SDS011;9169;44.492;11.372;2023-04-03T09:48:50;15.30;;;5.33;;
18084;SDS011;9169;44.492;11.372;2023-04-03T09:51:24;10.70;;;5.70;;
18084;SDS011;9169;44.492;11.372;2023-04-03T09:53:55;7.40;;;4.77;;
18084;SDS011;9169;44.492;11.372;2023-04-03T09:56:25;9.73;;;5.57;;
18084;SDS011;9169;44.492;11.372;2023-04-03T09:59:12;12.67;;;5.30;;
18084;SDS011;9169;44.492;11.372;2023-04-03T10:01:43;11.33;;;5.17;;
18084;SDS011;9169;44.492;11.372;2023-04-03T10:04:26;9.07;;;4.53;;
18084;SDS011;9169;44.492;11.372;2023-04-03T10:09:57;10.00;;;5.60;;
18084;SDS011;9169;44.492;11.372;2023-04-03T10:12:28;9.30;;;5.27;;
18084;SDS011;9169;44.492;11.372;2023-04-03T10:14:58;6.60;;;4.60;;
18084;SDS011;9169;44.492;11.372;2023-04-03T10:17:32;8.50;;;4.70;;
18084;SDS011;9169;44.492;11.372;2023-04-03T10:20:18;11.73;;;5.47;;
18084;SDS011;9169;44.492;11.372;2023-04-03T10:22:56;13.13;;;4.07;;
18084;SDS011;9169;44.492;11.372;2023-04-03T10:25:32;7.60;;;3.10;;
18084;SDS011;9169;44.492;11.372;2023-04-03T10:28:09;10.63;;;3.37;;
18084;SDS011;9169;44.492;11.372;2023-04-03T10:30:48;5.93;;;2.93;;
18084;SDS011;9169;44.492;11.372;2023-04-03T10:33:27;7.30;;;3.23;;
18084;SDS011;9169;44.492;11.372;2023-04-03T10:36:20;8.03;;;2.90;;
18084;SDS011;9169;44.492;11.372;2023-04-03T10:38:58;8.03;;;3.10;;
18084;SDS011;9169;44.492;11.372;2023-04-03T10:41:33;8.33;;;2.90;;
18084;SDS011;9169;44.492;11.372;2023-04-03T10:44:14;6.57;;;2.60;;
18084;SDS011;9169;44.492;11.372;2023-04-03T10:46:49;9.03;;;3.10;;
18084;SDS011;9169;44.492;11.372;2023-04-03T10:49:25;7.73;;;3.10;;
18084;SDS011;9169;44.492;11.372;2023-04-03T10:52:02;9.03;;;2.67;;
18084;SDS011;9169;44.492;11.372;2023-04-03T10:54:38;8.30;;;2.80;;
18084;SDS011;9169;44.492;11.372;2023-04-03T10:57:09;5.90;;;2.90;;
18084;SDS011;9169;44.492;11.372;2023-04-03T10:59:40;13.00;;;3.60;;
18084;SDS011;9169;44.492;11.372;2023-04-03T11:02:16;7.00;;;2.70;;
18084;SDS011;9169;44.492;11.372;2023-04-03T11:04:51;4.97;;;2.50;;
18084;SDS011;9169;44.492;11.372;2023-04-03T11:07:26;5.80;;;2.53;;
18084;SDS011;9169;44.492;11.372;2023-04-03T11:09:59;4.93;;;2.40;;
18084;SDS011;9169;44.492;11.372;2023-04-03T11:12:35;7.23;;;4.13;;
18084;SDS011;9169;44.492;11.372;2023-04-03T11:15:11;10.20;;;5.90;;
18084;SDS011;9169;44.492;11.372;2023-04-03T11:17:45;6.50;;;3.87;;
18084;SDS011;9169;44.492;11.372;2023-04-03T11:20:18;5.70;;;2.70;;
18084;SDS011;9169;44.492;11.372;2023-04-03T11:22:57;6.17;;;4.77;;
18084;SDS011;9169;44.492;11.372;2023-04-03T11:25:30;7.13;;;2.90;;
18084;SDS011;9169;44.492;11.372;2023-04-03T11:28:02;8.10;;;6.43;;
18084;SDS011;9169;44.492;11.372;2023-04-03T11:30:33;7.90;;;2.83;;
18084;SDS011;9169;44.492;11.372;2023-04-03T11:33:18;7.80;;;4.37;;
18084;SDS011;9169;44.492;11.372;2023-04-03T11:35:57;6.63;;;2.80;;
18084;SDS011;9169;44.492;11.372;2023-04-03T11:38:31;7.17;;;2.63;;
18084;SDS011;9169;44.492;11.372;2023-04-03T11:41:06;22.40;;;16.37;;
18084;SDS011;9169;44.492;11.372;2023-04-03T11:43:40;7.60;;;4.40;;
18084;SDS011;9169;44.492;11.372;2023-04-03T11:46:09;5.83;;;2.97;;
18084;SDS011;9169;44.492;11.372;2023-04-03T11:48:44;6.93;;;3.70;;
18084;SDS011;9169;44.492;11.372;2023-04-03T12:00:46;7.90;;;3.00;;
18084;SDS011;9169;44.492;11.372;2023-04-03T12:09:35;4.30;;;2.57;;
18084;SDS011;9169;44.492;11.372;2023-04-03T12:12:28;6.90;;;2.50;;
18084;SDS011;9169;44.492;11.372;2023-04-03T12:15:12;8.03;;;4.23;;
18084;SDS011;9169;44.492;11.372;2023-04-03T12:24:49;7.73;;;2.50;;
18084;SDS011;9169;44.492;11.372;2023-04-03T12:27:30;20.27;;;2.40;;
18084;SDS011;9169;44.492;11.372;2023-04-03T12:30:10;4.00;;;1.80;;
18084;SDS011;9169;44.492;11.372;2023-04-03T12:33:04;4.63;;;2.30;;
18084;SDS011;9169;44.492;11.372;2023-04-03T12:35:49;6.13;;;2.23;;
18084;SDS011;9169;44.492;11.372;2023-04-03T12:38:58;5.57;;;1.63;;
18084;SDS011;9169;44.492;11.372;2023-04-03T12:41:38;5.20;;;2.00;;
18084;SDS011;9169;44.492;11.372;2023-04-03T12:44:18;5.23;;;1.90;;
18084;SDS011;9169;44.492;11.372;2023-04-03T12:47:16;3.80;;;1.90;;
18084;SDS011;9169;44.492;11.372;2023-04-03T12:49:51;4.30;;;1.70;;
18084;SDS011;9169;44.492;11.372;2023-04-03T12:52:29;2.80;;;1.73;;
18084;SDS011;9169;44.492;11.372;2023-04-03T12:55:01;4.00;;;1.97;;
18084;SDS011;9169;44.492;11.372;2023-04-03T12:57:33;3.83;;;1.90;;
18084;SDS011;9169;44.492;11.372;2023-04-03T13:02:57;6.40;;;1.80;;
18084;SDS011;9169;44.492;11.372;2023-04-03T13:05:25;5.17;;;2.20;;
18084;SDS011;9169;44.492;11.372;2023-04-03T13:07:57;4.07;;;2.13;;
18084;SDS011;9169;44.492;11.372;2023-04-03T13:10:28;6.83;;;2.50;;
18084;SDS011;9169;44.492;11.372;2023-04-03T13:13:06;4.73;;;2.13;;
18084;SDS011;9169;44.492;11.372;2023-04-03T13:15:40;12.97;;;8.40;;
18084;SDS011;9169;44.492;11.372;2023-04-03T13:18:21;4.70;;;2.03;;
18084;SDS011;9169;44.492;11.372;2023-04-03T13:20:51;7.27;;;3.40;;
18084;SDS011;9169;44.492;11.372;2023-04-03T13:23:23;4.07;;;2.23;;
18084;SDS011;9169;44.492;11.372;2023-04-03T13:25:52;3.17;;;1.47;;
18084;SDS011;9169;44.492;11.372;2023-04-03T13:28:23;5.57;;;2.07;;
18084;SDS011;9169;44.492;11.372;2023-04-03T13:31:00;7.00;;;3.03;;
18084;SDS011;9169;44.492;11.372;2023-04-03T13:33:33;4.10;;;2.77;;
18084;SDS011;9169;44.492;11.372;2023-04-03T13:36:05;5.70;;;3.30;;
18084;SDS011;9169;44.492;11.372;2023-04-03T13:38:36;3.60;;;1.70;;
18084;SDS011;9169;44.492;11.372;2023-04-03T13:41:05;5.53;;;3.13;;
18084;SDS011;9169;44.492;11.372;2023-04-03T13:43:52;10.30;;;6.57;;
18084;SDS011;9169;44.492;11.372;2023-04-03T13:46:24;16.40;;;12.10;;
18084;SDS011;9169;44.492;11.372;2023-04-03T13:48:55;10.20;;;8.17;;
18084;SDS011;9169;44.492;11.372;2023-04-03T13:51:25;4.27;;;1.90;;
18084;SDS011;9169;44.492;11.372;2023-04-03T13:53:56;6.20;;;2.53;;
18084;SDS011;9169;44.492;11.372;2023-04-03T13:56:29;7.80;;;1.90;;
18084;SDS011;9169;44.492;11.372;2023-04-03T13:59:03;4.10;;;1.70;;
18084;SDS011;9169;44.492;11.372;2023-04-03T14:01:48;6.33;;;2.30;;
18084;SDS011;9169;44.492;11.372;2023-04-03T14:04:21;6.07;;;4.67;;
18084;SDS011;9169;44.492;11.372;2023-04-03T14:06:52;7.13;;;4.57;;
18084;SDS011;9169;44.492;11.372;2023-04-03T14:09:22;4.43;;;2.37;;
18084;SDS011;9169;44.492;11.372;2023-04-03T14:11:57;5.97;;;4.30;;
18084;SDS011;9169;44.492;11.372;2023-04-03T14:14:34;4.70;;;2.60;;
18084;SDS011;9169;44.492;11.372;2023-04-03T14:17:10;5.87;;;3.63;;
18084;SDS011;9169;44.492;11.372;2023-04-03T14:19:42;3.97;;;2.57;;
18084;SDS011;9169;44.492;11.372;2023-04-03T14:22:13;4.30;;;2.60;;
18084;SDS011;9169;44.492;11.372;2023-04-03T14:24:46;6.27;;;2.00;;
18084;SDS011;9169;44.492;11.372;2023-04-03T14:27:16;5.00;;;1.73;;
18084;SDS011;9169;44.492;11.372;2023-04-03T14:29:49;4.20;;;2.00;;
18084;SDS011;9169;44.492;11.372;2023-04-03T14:32:24;8.20;;;5.13;;
18084;SDS011;9169;44.492;11.372;2023-04-03T14:34:53;6.17;;;2.37;;
18084;SDS011;9169;44.492;11.372;2023-04-03T14:37:23;6.70;;;2.33;;
18084;SDS011;9169;44.492;11.372;2023-04-03T14:39:55;4.70;;;1.80;;
18084;SDS011;9169;44.492;11.372;2023-04-03T14:42:25;4.03;;;2.00;;
18084;SDS011;9169;44.492;11.372;2023-04-03T14:44:57;5.50;;;2.70;;
18084;SDS011;9169;44.492;11.372;2023-04-03T14:47:27;6.40;;;2.70;;
18084;SDS011;9169;44.492;11.372;2023-04-03T14:49:58;5.33;;;1.90;;
18084;SDS011;9169;44.492;11.372;2023-04-03T14:52:29;11.30;;;5.80;;
18084;SDS011;9169;44.492;11.372;2023-04-03T14:55:00;5.20;;;2.10;;
18084;SDS011;9169;44.492;11.372;2023-04-03T14:57:29;5.17;;;2.73;;
18084;SDS011;9169;44.492;11.372;2023-04-03T14:59:59;8.47;;;3.40;;
18084;SDS011;9169;44.492;11.372;2023-04-03T15:02:30;8.03;;;3.93;;
18084;SDS011;9169;44.492;11.372;2023-04-03T15:05:02;7.30;;;4.30;;
18084;SDS011;9169;44.492;11.372;2023-04-03T15:07:32;7.37;;;3.40;;
18084;SDS011;9169;44.492;11.372;2023-04-03T15:10:05;5.37;;;3.37;;
18084;SDS011;9169;44.492;11.372;2023-04-03T15:12:43;5.80;;;3.33;;
18084;SDS011;9169;44.492;11.372;2023-04-03T15:15:14;9.03;;;3.40;;
18084;SDS011;9169;44.492;11.372;2023-04-03T15:17:43;6.73;;;2.13;;
18084;SDS011;9169;44.492;11.372;2023-04-03T15:20:15;4.43;;;1.80;;
18084;SDS011;9169;44.492;11.372;2023-04-03T15:22:46;10.20;;;4.17;;
18084;SDS011;9169;44.492;11.372;2023-04-03T15:25:15;4.10;;;1.70;;
18084;SDS011;9169;44.492;11.372;2023-04-03T15:27:44;4.90;;;1.80;;
18084;SDS011;9169;44.492;11.372;2023-04-03T15:30:15;5.17;;;2.10;;
18084;SDS011;9169;44.492;11.372;2023-04-03T15:32:45;4.10;;;1.83;;
18084;SDS011;9169;44.492;11.372;2023-04-03T15:35:15;8.90;;;1.80;;
18084;SDS011;9169;44.492;11.372;2023-04-03T15:37:43;6.83;;;1.90;;
18084;SDS011;9169;44.492;11.372;2023-04-03T15:40:12;4.30;;;2.40;;
18084;SDS011;9169;44.492;11.372;2023-04-03T15:42:41;4.20;;;2.50;;